sensor_id;sensor_type;location;lat;lon;timestamp;P1;durP1;ratioP1;P2;durP2;ratioP2
24301;SDS011;12421;49.732;20.078;2024-01-30T00:05:32;55.60;;;28.20;;
24301;SDS011;12421;49.732;20.078;2024-01-30T00:15:35;49.90;;;25.10;;
24301;SDS011;12421;49.732;20.078;2024-01-30T00:25:39;51.70;;;25.40;;
24301;SDS011;12421;49.732;20.078;2024-01-30T00:35:42;46.70;;;22.70;;
24301;SDS011;12421;49.732;20.078;2024-01-30T00:45:45;37.10;;;18.90;;
24301;SDS011;12421;49.732;20.078;2024-01-30T00:55:48;38.10;;;20.50;;
24301;SDS011;12421;49.732;20.078;2024-01-30T01:05:51;33.40;;;18.00;;
24301;SDS011;12421;49.732;20.078;2024-01-30T01:15:54;34.10;;;18.00;;
24301;SDS011;12421;49.732;20.078;2024-01-30T01:25:58;36.00;;;17.40;;
24301;SDS011;12421;49.732;20.078;2024-01-30T01:36:03;34.10;;;17.20;;
24301;SDS011;12421;49.732;20.078;2024-01-30T01:46:06;29.20;;;16.40;;
24301;SDS011;12421;49.732;20.078;2024-01-30T01:56:11;27.60;;;14.30;;
24301;SDS011;12421;49.732;20.078;2024-01-30T02:06:15;33.40;;;17.40;;
24301;SDS011;12421;49.732;20.078;2024-01-30T02:16:19;29.30;;;14.60;;
24301;SDS011;12421;49.732;20.078;2024-01-30T02:26:22;31.50;;;14.90;;
24301;SDS011;12421;49.732;20.078;2024-01-30T02:36:25;24.60;;;13.80;;
24301;SDS011;12421;49.732;20.078;2024-01-30T02:46:29;27.30;;;12.70;;
24301;SDS011;12421;49.732;20.078;2024-01-30T02:56:32;27.40;;;13.60;;
24301;SDS011;12421;49.732;20.078;2024-01-30T03:06:35;24.40;;;12.40;;
24301;SDS011;12421;49.732;20.078;2024-01-30T03:16:38;22.50;;;12.60;;
24301;SDS011;12421;49.732;20.078;2024-01-30T03:26:41;21.60;;;12.10;;
24301;SDS011;12421;49.732;20.078;2024-01-30T03:36:45;19.80;;;11.90;;
24301;SDS011;12421;49.732;20.078;2024-01-30T03:46:48;24.00;;;13.40;;
24301;SDS011;12421;49.732;20.078;2024-01-30T03:56:51;18.70;;;11.60;;
24301;SDS011;12421;49.732;20.078;2024-01-30T04:06:54;21.60;;;11.10;;
24301;SDS011;12421;49.732;20.078;2024-01-30T04:16:57;16.90;;;9.80;;
24301;SDS011;12421;49.732;20.078;2024-01-30T04:27:00;18.80;;;10.10;;
24301;SDS011;12421;49.732;20.078;2024-01-30T04:37:03;18.00;;;10.20;;
24301;SDS011;12421;49.732;20.078;2024-01-30T04:47:07;17.70;;;10.80;;
24301;SDS011;12421;49.732;20.078;2024-01-30T04:57:11;18.30;;;9.50;;
24301;SDS011;12421;49.732;20.078;2024-01-30T05:07:15;14.50;;;8.60;;
24301;SDS011;12421;49.732;20.078;2024-01-30T05:17:18;18.90;;;11.20;;
24301;SDS011;12421;49.732;20.078;2024-01-30T05:27:22;24.10;;;14.20;;
24301;SDS011;12421;49.732;20.078;2024-01-30T05:37:25;26.90;;;14.10;;
24301;SDS011;12421;49.732;20.078;2024-01-30T05:47:28;21.70;;;11.80;;
24301;SDS011;12421;49.732;20.078;2024-01-30T05:57:31;28.90;;;15.00;;
24301;SDS011;12421;49.732;20.078;2024-01-30T06:07:34;19.90;;;10.40;;
24301;SDS011;12421;49.732;20.078;2024-01-30T06:17:39;23.50;;;12.60;;
24301;SDS011;12421;49.732;20.078;2024-01-30T06:27:42;24.40;;;12.60;;
24301;SDS011;12421;49.732;20.078;2024-01-30T06:37:46;22.60;;;13.60;;
24301;SDS011;12421;49.732;20.078;2024-01-30T06:47:49;29.30;;;15.00;;
24301;SDS011;12421;49.732;20.078;2024-01-30T06:57:52;29.20;;;14.30;;
24301;SDS011;12421;49.732;20.078;2024-01-30T07:07:55;27.90;;;15.90;;
24301;SDS011;12421;49.732;20.078;2024-01-30T07:17:59;33.10;;;18.10;;
24301;SDS011;12421;49.732;20.078;2024-01-30T07:28:02;40.10;;;22.00;;
24301;SDS011;12421;49.732;20.078;2024-01-30T07:38:05;74.30;;;32.90;;
24301;SDS011;12421;49.732;20.078;2024-01-30T07:48:09;41.40;;;21.60;;
24301;SDS011;12421;49.732;20.078;2024-01-30T07:58:12;54.70;;;25.10;;
24301;SDS011;12421;49.732;20.078;2024-01-30T08:08:15;64.00;;;29.10;;
24301;SDS011;12421;49.732;20.078;2024-01-30T08:18:18;33.90;;;17.60;;
24301;SDS011;12421;49.732;20.078;2024-01-30T08:28:21;51.10;;;24.10;;
24301;SDS011;12421;49.732;20.078;2024-01-30T08:38:28;48.80;;;27.70;;
24301;SDS011;12421;49.732;20.078;2024-01-30T08:48:31;34.80;;;21.00;;
24301;SDS011;12421;49.732;20.078;2024-01-30T08:58:34;24.10;;;14.30;;
24301;SDS011;12421;49.732;20.078;2024-01-30T09:08:38;23.10;;;13.70;;
24301;SDS011;12421;49.732;20.078;2024-01-30T09:18:41;21.30;;;13.10;;
24301;SDS011;12421;49.732;20.078;2024-01-30T09:28:45;22.10;;;11.90;;
24301;SDS011;12421;49.732;20.078;2024-01-30T09:38:48;14.30;;;8.80;;
24301;SDS011;12421;49.732;20.078;2024-01-30T09:48:51;16.30;;;9.10;;
24301;SDS011;12421;49.732;20.078;2024-01-30T09:58:55;14.10;;;8.10;;
24301;SDS011;12421;49.732;20.078;2024-01-30T10:08:58;14.20;;;8.00;;
24301;SDS011;12421;49.732;20.078;2024-01-30T10:19:01;13.10;;;7.80;;
24301;SDS011;12421;49.732;20.078;2024-01-30T10:29:06;11.70;;;7.10;;
24301;SDS011;12421;49.732;20.078;2024-01-30T10:39:10;14.10;;;7.60;;
24301;SDS011;12421;49.732;20.078;2024-01-30T10:49:14;11.10;;;7.00;;
24301;SDS011;12421;49.732;20.078;2024-01-30T10:59:18;10.30;;;6.40;;
24301;SDS011;12421;49.732;20.078;2024-01-30T11:09:21;11.80;;;6.50;;
24301;SDS011;12421;49.732;20.078;2024-01-30T11:19:25;11.10;;;6.30;;
24301;SDS011;12421;49.732;20.078;2024-01-30T11:29:30;9.40;;;5.90;;
24301;SDS011;12421;49.732;20.078;2024-01-30T11:39:33;10.50;;;6.30;;
24301;SDS011;12421;49.732;20.078;2024-01-30T11:49:38;12.10;;;7.00;;
24301;SDS011;12421;49.732;20.078;2024-01-30T11:59:42;11.40;;;6.00;;
24301;SDS011;12421;49.732;20.078;2024-01-30T12:09:52;15.10;;;7.70;;
24301;SDS011;12421;49.732;20.078;2024-01-30T12:20:06;12.50;;;7.30;;
24301;SDS011;12421;49.732;20.078;2024-01-30T12:40:18;12.20;;;7.90;;
24301;SDS011;12421;49.732;20.078;2024-01-30T12:50:22;13.90;;;7.80;;
24301;SDS011;12421;49.732;20.078;2024-01-30T13:00:25;11.10;;;6.80;;
24301;SDS011;12421;49.732;20.078;2024-01-30T13:10:28;13.00;;;7.20;;
24301;SDS011;12421;49.732;20.078;2024-01-30T13:20:32;9.90;;;5.80;;
24301;SDS011;12421;49.732;20.078;2024-01-30T13:30:35;10.00;;;6.30;;
24301;SDS011;12421;49.732;20.078;2024-01-30T13:40:38;10.80;;;6.60;;
24301;SDS011;12421;49.732;20.078;2024-01-30T13:50:42;11.80;;;6.60;;
24301;SDS011;12421;49.732;20.078;2024-01-30T14:00:45;8.60;;;5.90;;
24301;SDS011;12421;49.732;20.078;2024-01-30T14:10:48;9.70;;;5.80;;
24301;SDS011;12421;49.732;20.078;2024-01-30T14:20:52;9.20;;;6.00;;
24301;SDS011;12421;49.732;20.078;2024-01-30T14:30:55;11.80;;;7.30;;
24301;SDS011;12421;49.732;20.078;2024-01-30T14:40:58;12.00;;;6.70;;
24301;SDS011;12421;49.732;20.078;2024-01-30T14:51:02;13.00;;;7.10;;
24301;SDS011;12421;49.732;20.078;2024-01-30T15:01:06;13.30;;;7.30;;
24301;SDS011;12421;49.732;20.078;2024-01-30T15:11:11;13.60;;;6.90;;
24301;SDS011;12421;49.732;20.078;2024-01-30T15:21:14;91.00;;;50.10;;
24301;SDS011;12421;49.732;20.078;2024-01-30T15:31:23;47.80;;;25.30;;
24301;SDS011;12421;49.732;20.078;2024-01-30T15:41:30;48.70;;;29.20;;
24301;SDS011;12421;49.732;20.078;2024-01-30T15:51:34;74.40;;;41.00;;
24301;SDS011;12421;49.732;20.078;2024-01-30T16:01:38;105.00;;;55.50;;
24301;SDS011;12421;49.732;20.078;2024-01-30T16:11:41;54.10;;;29.00;;
24301;SDS011;12421;49.732;20.078;2024-01-30T16:21:44;65.30;;;36.30;;
24301;SDS011;12421;49.732;20.078;2024-01-30T16:31:48;54.60;;;29.40;;
24301;SDS011;12421;49.732;20.078;2024-01-30T16:41:51;89.30;;;48.90;;
24301;SDS011;12421;49.732;20.078;2024-01-30T16:51:55;74.10;;;39.50;;
24301;SDS011;12421;49.732;20.078;2024-01-30T17:02:00;100.20;;;48.30;;
24301;SDS011;12421;49.732;20.078;2024-01-30T17:12:04;97.90;;;49.70;;
24301;SDS011;12421;49.732;20.078;2024-01-30T17:22:07;102.50;;;51.00;;
24301;SDS011;12421;49.732;20.078;2024-01-30T17:32:11;108.20;;;52.60;;
24301;SDS011;12421;49.732;20.078;2024-01-30T17:42:14;111.00;;;51.50;;
24301;SDS011;12421;49.732;20.078;2024-01-30T17:52:18;89.10;;;43.90;;
24301;SDS011;12421;49.732;20.078;2024-01-30T18:02:21;127.10;;;68.20;;
24301;SDS011;12421;49.732;20.078;2024-01-30T18:12:25;148.00;;;76.40;;
24301;SDS011;12421;49.732;20.078;2024-01-30T18:22:31;138.20;;;70.40;;
24301;SDS011;12421;49.732;20.078;2024-01-30T18:32:35;105.50;;;56.20;;
24301;SDS011;12421;49.732;20.078;2024-01-30T18:42:41;116.00;;;59.90;;
24301;SDS011;12421;49.732;20.078;2024-01-30T18:52:44;108.20;;;59.90;;
24301;SDS011;12421;49.732;20.078;2024-01-30T19:02:48;104.70;;;56.40;;
24301;SDS011;12421;49.732;20.078;2024-01-30T19:12:54;132.80;;;65.40;;
24301;SDS011;12421;49.732;20.078;2024-01-30T19:22:57;124.20;;;64.60;;
24301;SDS011;12421;49.732;20.078;2024-01-30T19:33:03;129.80;;;65.20;;
24301;SDS011;12421;49.732;20.078;2024-01-30T19:43:06;128.30;;;61.60;;
24301;SDS011;12421;49.732;20.078;2024-01-30T19:53:13;119.70;;;60.40;;
24301;SDS011;12421;49.732;20.078;2024-01-30T20:03:17;122.60;;;55.80;;
24301;SDS011;12421;49.732;20.078;2024-01-30T20:13:21;104.70;;;50.60;;
24301;SDS011;12421;49.732;20.078;2024-01-30T20:23:27;90.90;;;47.00;;
24301;SDS011;12421;49.732;20.078;2024-01-30T20:33:31;88.10;;;47.90;;
24301;SDS011;12421;49.732;20.078;2024-01-30T20:43:42;94.50;;;49.00;;
24301;SDS011;12421;49.732;20.078;2024-01-30T20:53:46;89.00;;;44.90;;
24301;SDS011;12421;49.732;20.078;2024-01-30T21:03:50;101.40;;;52.90;;
24301;SDS011;12421;49.732;20.078;2024-01-30T21:13:53;94.80;;;46.10;;
24301;SDS011;12421;49.732;20.078;2024-01-30T21:23:56;100.50;;;48.40;;
24301;SDS011;12421;49.732;20.078;2024-01-30T21:33:59;91.50;;;43.40;;
24301;SDS011;12421;49.732;20.078;2024-01-30T21:44:02;74.10;;;35.10;;
24301;SDS011;12421;49.732;20.078;2024-01-30T21:54:08;60.40;;;29.40;;
24301;SDS011;12421;49.732;20.078;2024-01-30T22:04:12;65.50;;;33.30;;
24301;SDS011;12421;49.732;20.078;2024-01-30T22:14:15;60.70;;;27.20;;
24301;SDS011;12421;49.732;20.078;2024-01-30T22:24:19;72.20;;;30.30;;
24301;SDS011;12421;49.732;20.078;2024-01-30T22:34:24;60.00;;;27.70;;
24301;SDS011;12421;49.732;20.078;2024-01-30T22:44:27;61.50;;;26.20;;
24301;SDS011;12421;49.732;20.078;2024-01-30T22:54:31;81.20;;;36.10;;
24301;SDS011;12421;49.732;20.078;2024-01-30T23:04:34;75.20;;;34.60;;
24301;SDS011;12421;49.732;20.078;2024-01-30T23:14:38;59.60;;;26.20;;
24301;SDS011;12421;49.732;20.078;2024-01-30T23:24:42;70.20;;;30.40;;
24301;SDS011;12421;49.732;20.078;2024-01-30T23:35:04;53.90;;;24.30;;
24301;SDS011;12421;49.732;20.078;2024-01-30T23:45:09;56.40;;;23.60;;
24301;SDS011;12421;49.732;20.078;2024-01-30T23:55:13;48.50;;;22.40;;
